Time;durP1;ratioP1;P1;durP2;ratioP2;P2;SDS_P1;SDS_P2;PMS_P1;PMS_P2;Temp;Humidity;BMP_temperature;BMP_pressure;BME280_temperature;BME280_humidity;BME280_pressure;Samples;Min_cycle;Max_cycle;Signal;HPM_P1;HPM_P2
2022/06/12 00:02:17;;;;;;;11.98;3.90;;;;;;;12.37;83.73;102124.50;5065875;28;20429;-78
2022/06/12 00:04:42;;;;;;;19.92;5.30;;;;;;;12.38;83.63;102125.34;5069906;28;20028;-78
2022/06/12 00:07:08;;;;;;;18.33;4.95;;;;;;;12.40;83.88;102118.03;5069277;28;20035;-77
2022/06/12 00:09:33;;;;;;;15.80;4.93;;;;;;;12.39;83.39;102114.47;5068392;28;20090;-77
2022/06/12 00:11:59;;;;;;;17.77;4.78;;;;;;;12.40;84.54;102123.41;5069429;28;20032;-77
2022/06/12 00:14:24;;;;;;;18.70;4.18;;;;;;;12.41;83.44;102125.16;5069206;28;20120;-77
2022/06/12 00:16:52;;;;;;;17.30;4.63;;;;;;;12.44;84.27;102124.97;5082278;28;20024;-77
2022/06/12 00:19:18;;;;;;;17.83;5.28;;;;;;;12.44;84.51;102119.56;5064374;28;20029;-77
2022/06/12 00:21:43;;;;;;;19.48;4.65;;;;;;;12.47;83.83;102113.13;5065323;28;20052;-77
2022/06/12 00:24:13;;;;;;;16.67;4.88;;;;;;;12.49;84.24;102117.47;5070408;28;20401;-78
2022/06/12 00:26:43;;;;;;;14.27;4.00;;;;;;;12.47;83.36;102119.38;5069361;28;20031;-78
2022/06/12 00:29:08;;;;;;;15.00;4.82;;;;;;;12.48;83.48;102118.44;5071581;28;20039;-78
2022/06/12 00:31:36;;;;;;;17.00;5.22;;;;;;;12.50;83.34;102116.50;5067701;28;20624;-78
2022/06/12 00:34:03;;;;;;;18.35;5.20;;;;;;;12.48;83.68;102121.13;5068077;28;20019;-79
2022/06/12 00:36:28;;;;;;;16.92;4.55;;;;;;;12.44;83.04;102114.19;5058811;28;20024;-78
2022/06/12 00:38:53;;;;;;;18.80;5.57;;;;;;;12.39;83.46;102116.31;5065020;28;20403;-78
2022/06/12 00:41:19;;;;;;;12.65;4.40;;;;;;;12.37;83.23;102113.72;5063198;28;20021;-78
2022/06/12 00:43:44;;;;;;;15.48;4.78;;;;;;;12.33;82.94;102119.34;5068678;28;20012;-79
2022/06/12 00:46:41;;;;;;;17.80;5.07;;;;;;;12.31;82.98;102110.50;5068897;28;20024;-78
2022/06/12 00:49:16;;;;;;;14.90;4.22;;;;;;;12.24;82.97;102116.28;5067250;28;20058;-78
2022/06/12 00:51:43;;;;;;;12.77;4.10;;;;;;;12.15;83.67;102113.25;5069640;28;20039;-78
2022/06/12 00:54:10;;;;;;;18.10;4.68;;;;;;;12.16;83.34;102118.53;5068970;28;20485;-78
2022/06/12 00:56:39;;;;;;;10.43;4.38;;;;;;;12.11;83.87;102117.97;5066578;28;20429;-77
2022/06/12 00:59:12;;;;;;;17.38;4.78;;;;;;;12.09;83.67;102119.88;5071023;28;20037;-77
2022/06/12 01:01:48;;;;;;;20.90;5.28;;;;;;;12.07;83.63;102121.78;5069789;28;20025;-77
2022/06/12 01:07:01;;;;;;;16.58;4.95;;;;;;;12.03;83.52;102107.63;5063211;28;20112;-78
2022/06/12 01:09:32;;;;;;;12.43;4.03;;;;;;;12.07;83.18;102106.47;5057348;28;20075;-77
2022/06/12 01:12:00;;;;;;;15.57;4.63;;;;;;;12.07;83.70;102119.97;5069002;28;20024;-78
2022/06/12 01:14:31;;;;;;;17.70;5.45;;;;;;;12.05;83.45;102123.72;5064799;28;20111;-78
2022/06/12 01:16:57;;;;;;;13.80;4.72;;;;;;;12.00;82.99;102115.03;5069344;28;20433;-78
2022/06/12 01:19:29;;;;;;;16.02;4.38;;;;;;;11.95;83.30;102123.38;5070449;28;20028;-78
2022/06/12 01:22:13;;;;;;;13.70;4.20;;;;;;;11.97;82.75;102124.16;5069500;28;20053;-78
2022/06/12 01:25:16;;;;;;;16.50;4.63;;;;;;;11.94;82.99;102123.47;5069158;28;20498;-78
2022/06/12 01:27:57;;;;;;;15.38;4.55;;;;;;;11.86;83.23;102118.53;5067199;28;20047;-78
2022/06/12 01:30:33;;;;;;;16.02;4.47;;;;;;;11.77;83.12;102117.22;5067014;28;20033;-78
2022/06/12 01:33:11;;;;;;;14.93;4.63;;;;;;;11.74;83.37;102120.06;5067874;28;20059;-78
2022/06/12 01:35:52;;;;;;;18.05;4.50;;;;;;;11.71;83.74;102115.75;5068328;28;20119;-78
2022/06/12 01:38:23;;;;;;;14.23;4.50;;;;;;;11.65;83.88;102116.09;5068790;28;20059;-78
2022/06/12 01:40:51;;;;;;;16.25;5.00;;;;;;;11.68;83.50;102115.06;5069437;28;20036;-78
2022/06/12 01:43:29;;;;;;;18.23;4.95;;;;;;;11.66;83.76;102103.50;5064281;28;20042;-78
2022/06/12 01:46:08;;;;;;;16.02;4.13;;;;;;;11.71;83.56;102104.09;5069669;28;20039;-78
2022/06/12 01:48:39;;;;;;;19.63;5.28;;;;;;;11.74;83.60;102106.59;5066040;28;20035;-78
2022/06/12 01:51:41;;;;;;;20.40;4.30;;;;;;;11.77;83.27;102109.16;5067147;28;20029;-78
2022/06/12 01:54:20;;;;;;;17.33;4.68;;;;;;;11.75;83.32;102107.50;5066278;28;20090;-78
2022/06/12 01:56:49;;;;;;;11.95;4.18;;;;;;;11.70;83.64;102102.38;5065305;28;20029;-78
2022/06/12 01:59:20;;;;;;;21.33;4.57;;;;;;;11.63;83.36;102101.84;5066204;28;20410;-78
2022/06/12 02:01:57;;;;;;;12.70;4.07;;;;;;;11.57;83.69;102099.53;5060924;28;20519;-78
2022/06/12 02:04:47;;;;;;;17.00;4.88;;;;;;;11.51;83.65;102103.44;5066321;28;20039;-78
2022/06/12 02:07:27;;;;;;;14.63;4.25;;;;;;;11.44;83.83;102109.25;5069532;28;20032;-77
2022/06/12 02:10:04;;;;;;;20.20;4.45;;;;;;;11.41;83.27;102107.59;5067315;28;20391;-77
2022/06/12 02:15:23;;;;;;;18.15;4.50;;;;;;;11.36;84.67;102107.88;5072704;28;20207;-78
2022/06/12 02:18:01;;;;;;;16.73;4.75;;;;;;;11.35;84.22;102118.72;5069830;28;20032;-78
2022/06/12 02:20:34;;;;;;;18.70;4.78;;;;;;;11.33;84.55;102120.63;5069619;28;20165;-78
2022/06/12 02:23:05;;;;;;;19.48;5.00;;;;;;;11.28;84.55;102120.03;5069357;28;20016;-78
2022/06/12 02:25:35;;;;;;;16.23;4.93;;;;;;;11.22;84.46;102117.69;5073174;28;20509;-78
2022/06/12 02:28:11;;;;;;;18.90;4.70;;;;;;;11.21;84.53;102111.41;5055577;28;20498;-78
2022/06/12 02:30:41;;;;;;;16.58;4.63;;;;;;;11.18;84.60;102109.75;5070244;28;20448;-78
2022/06/12 02:33:15;;;;;;;;;;;;;;;11.33;83.00;102112.53;5069657;28;20066;-78
2022/06/12 02:35:50;;;;;;;15.68;4.55;;;;;;;11.25;84.30;102112.97;5070062;28;19912;-78
2022/06/12 02:38:29;;;;;;;19.30;5.32;;;;;;;11.25;85.14;102106.75;5073302;28;20082;-78
2022/06/12 02:41:01;;;;;;;19.38;5.22;;;;;;;11.34;84.42;102098.13;5066764;28;20103;-78
2022/06/12 02:43:30;;;;;;;17.38;4.97;;;;;;;11.38;85.04;102097.00;5068481;28;20058;-78
2022/06/12 02:46:18;;;;;;;19.17;5.30;;;;;;;11.43;84.50;102092.22;5069861;28;20077;-78
2022/06/12 02:48:44;;;;;;;15.82;4.97;;;;;;;11.39;84.44;102097.88;5072110;28;20496;-78
2022/06/12 02:51:13;;;;;;;13.80;4.72;;;;;;;11.35;84.44;102097.19;5067547;28;20537;-78
2022/06/12 02:54:10;;;;;;;15.05;4.88;;;;;;;11.38;84.21;102097.00;5065039;28;20822;-78
2022/06/12 02:56:54;;;;;;;19.92;5.65;;;;;;;11.39;84.63;102093.38;5060785;28;20060;-78
2022/06/12 03:00:04;;;;;;;18.05;5.45;;;;;;;11.39;84.56;102085.31;5064411;28;20373;-77
2022/06/12 03:02:56;;;;;;;23.95;5.78;;;;;;;11.39;85.74;102093.38;5050274;28;20105;-77
2022/06/12 03:05:32;;;;;;;21.98;5.78;;;;;;;11.42;85.52;102081.53;5056578;28;20505;-77
2022/06/12 03:08:01;;;;;;;18.35;5.05;;;;;;;11.42;85.63;102087.81;5058660;28;20053;-77
2022/06/12 03:10:31;;;;;;;19.67;5.38;;;;;;;11.45;85.61;102092.13;5068996;28;20608;-77
2022/06/12 03:12:57;;;;;;;19.40;5.30;;;;;;;11.45;85.10;102093.03;5069478;28;20369;-77
2022/06/12 03:15:51;;;;;;;18.52;5.63;;;;;;;11.49;84.51;102094.59;5071856;28;20035;-77
2022/06/12 03:18:29;;;;;;;19.55;5.70;;;;;;;11.44;85.49;102095.81;5061863;28;20663;-77
2022/06/12 03:21:05;;;;;;;17.92;5.65;;;;;;;11.44;85.37;102102.03;5068405;28;20059;-77
2022/06/12 03:23:49;;;;;;;20.30;6.18;;;;;;;11.44;85.65;102096.66;5070469;28;20086;-77
2022/06/12 03:26:25;;;;;;;19.80;5.50;;;;;;;11.43;86.14;102100.28;5063704;28;20075;-77
2022/06/12 03:29:28;;;;;;;14.95;5.22;;;;;;;11.47;85.82;102095.63;5068173;28;20472;-77
2022/06/12 03:32:09;;;;;;;21.60;5.25;;;;;;;11.51;86.08;102103.44;5066340;28;20115;-77
2022/06/12 03:34:45;;;;;;;21.80;5.72;;;;;;;11.50;85.85;102099.00;5067498;28;20028;-77
2022/06/12 03:37:18;;;;;;;21.73;5.65;;;;;;;11.56;85.97;102105.00;5066164;28;20108;-77
2022/06/12 03:39:51;;;;;;;19.50;5.78;;;;;;;11.57;85.82;102104.03;5070846;28;20036;-77
2022/06/12 03:42:21;;;;;;;16.58;5.78;;;;;;;11.59;85.91;102104.81;5070439;28;20513;-78
2022/06/12 03:44:52;;;;;;;23.15;6.20;;;;;;;11.63;85.73;102103.69;5068490;28;20450;-78
2022/06/12 03:47:43;;;;;;;19.42;5.53;;;;;;;11.67;85.40;102108.81;5070756;28;20039;-78
2022/06/12 03:50:09;;;;;;;21.80;5.57;;;;;;;11.65;85.57;102102.63;5070243;28;20112;-78
2022/06/12 03:52:55;;;;;;;18.40;6.43;;;;;;;11.71;85.18;102106.78;5068649;28;20035;-78
2022/06/12 03:58:21;;;;;;;17.25;5.78;;;;;;;11.74;85.17;102109.31;5069465;28;20531;-78
2022/06/12 04:00:49;;;;;;;20.65;6.00;;;;;;;11.77;85.03;102109.16;5071948;28;20028;-78
2022/06/12 04:03:29;;;;;;;16.38;5.68;;;;;;;11.82;84.79;102106.19;5069224;28;20026;-78
2022/06/12 04:05:59;;;;;;;;;;;;;;;11.93;83.55;102109.13;5065474;28;20028;-78
2022/06/12 04:08:30;;;;;;;17.30;5.97;;;;;;;11.82;84.32;102111.56;5065780;28;20644;-77
2022/06/12 04:10:56;;;;;;;23.77;6.10;;;;;;;11.84;84.08;102106.94;5069054;28;20024;-77
2022/06/12 04:13:23;;;;;;;20.05;6.25;;;;;;;11.86;83.86;102107.75;5067531;28;20028;-77
2022/06/12 04:15:58;;;;;;;20.88;6.38;;;;;;;11.87;84.06;102104.97;5070634;28;20028;-77
2022/06/12 04:18:26;;;;;;;20.35;5.50;;;;;;;11.92;83.66;102110.06;5065980;28;20123;-78
2022/06/12 04:20:56;;;;;;;19.40;5.40;;;;;;;11.96;83.81;102108.09;5068956;28;20052;-77
2022/06/12 04:23:47;;;;;;;19.13;5.40;;;;;;;11.99;83.20;102106.09;5066964;28;20125;-78
2022/06/12 04:26:27;;;;;;;19.48;6.35;;;;;;;12.01;83.05;102111.38;5061530;28;20074;-78
2022/06/12 04:28:58;;;;;;;20.88;5.47;;;;;;;12.02;83.05;102110.41;5068462;28;20051;-78
2022/06/12 04:31:23;;;;;;;16.48;5.75;;;;;;;12.05;83.11;102108.41;5069384;28;20060;-78
2022/06/12 04:34:13;;;;;;;19.70;5.28;;;;;;;12.08;82.97;102118.16;5069961;28;20056;-78
2022/06/12 04:36:40;;;;;;;17.73;5.85;;;;;;;12.07;82.69;102119.97;5062916;28;20104;-78
2022/06/12 04:39:05;;;;;;;17.65;5.50;;;;;;;12.09;82.14;102121.69;5066008;28;20031;-77
2022/06/12 04:41:35;;;;;;;17.48;6.03;;;;;;;12.10;82.64;102127.00;5069436;28;20028;-78
2022/06/12 04:44:00;;;;;;;;;;;;;;;12.21;82.10;102126.34;5069288;28;20111;-78
2022/06/12 04:46:26;;;;;;;16.73;5.15;;;;;;;12.17;82.17;102125.69;5068143;28;20022;-78
2022/06/12 04:48:55;;;;;;;15.05;5.35;;;;;;;12.20;81.80;102130.03;5066906;28;20076;-78
2022/06/12 04:51:20;;;;;;;21.02;5.97;;;;;;;12.26;81.75;102124.25;5070056;28;20048;-78
2022/06/12 04:53:47;;;;;;;17.65;5.47;;;;;;;12.27;81.80;102117.91;5070477;28;20025;-78
2022/06/12 04:56:14;;;;;;;19.83;5.60;;;;;;;12.30;81.97;102123.13;5068259;28;20025;-77
2022/06/12 04:58:40;;;;;;;17.30;4.85;;;;;;;12.34;81.63;102124.69;5066655;28;20124;-78
2022/06/12 05:01:07;;;;;;;16.88;5.43;;;;;;;12.39;80.64;102122.56;5072636;28;20043;-78
2022/06/12 05:03:32;;;;;;;19.02;4.65;;;;;;;12.43;80.93;102116.97;5058517;28;20443;-78
2022/06/12 05:05:58;;;;;;;20.02;5.53;;;;;;;12.48;80.71;102123.81;5064397;28;20124;-78
2022/06/12 05:08:24;;;;;;;20.08;5.75;;;;;;;12.51;81.27;102115.53;5064261;28;20086;-77
2022/06/12 05:10:49;;;;;;;23.02;6.03;;;;;;;12.57;81.15;102117.84;5065235;28;20060;-77
2022/06/12 05:13:14;;;;;;;19.02;4.90;;;;;;;12.62;81.53;102114.91;5068565;28;20028;-77
2022/06/12 05:15:40;;;;;;;16.70;4.57;;;;;;;12.69;80.88;102124.31;5069345;28;20024;-77
2022/06/12 05:18:07;;;;;;;19.92;6.03;;;;;;;12.74;80.79;102124.06;5068260;28;20032;-77
2022/06/12 05:20:34;;;;;;;19.38;5.57;;;;;;;12.79;80.98;102123.78;5064676;28;20052;-77
2022/06/12 05:23:00;;;;;;;30.83;6.78;;;;;;;12.88;81.19;102124.03;5067990;28;20027;-78
2022/06/12 05:25:25;;;;;;;19.48;6.00;;;;;;;12.93;80.67;102119.25;5064825;28;20020;-78
2022/06/12 05:27:52;;;;;;;24.45;5.85;;;;;;;13.01;81.54;102123.28;5069148;28;20035;-78
2022/06/12 05:30:22;;;;;;;16.52;4.88;;;;;;;13.07;80.52;102118.34;5067188;28;20036;-78
2022/06/12 05:32:50;;;;;;;14.88;4.90;;;;;;;13.14;80.72;102116.13;5054617;28;20082;-78
2022/06/12 05:35:18;;;;;;;19.02;5.55;;;;;;;13.20;79.45;102122.97;5064996;28;20028;-78
2022/06/12 05:37:44;;;;;;;19.92;5.53;;;;;;;13.23;79.90;102123.63;5060901;28;20527;-78
2022/06/12 05:40:14;;;;;;;20.25;6.07;;;;;;;13.31;79.72;102123.16;5067157;28;20056;-78
2022/06/12 05:42:39;;;;;;;21.65;6.10;;;;;;;13.35;80.15;102118.44;5068395;28;20036;-78
2022/06/12 05:45:07;;;;;;;16.67;4.75;;;;;;;13.41;80.48;102123.44;5065130;28;20047;-78
2022/06/12 05:47:33;;;;;;;22.13;5.32;;;;;;;13.46;79.86;102124.88;5068233;28;20067;-78
2022/06/12 05:49:58;;;;;;;25.77;6.32;;;;;;;13.53;80.44;102127.19;5073307;28;20444;-78
2022/06/12 05:52:24;;;;;;;20.40;5.75;;;;;;;13.60;79.72;102129.41;5068876;28;20574;-77
2022/06/12 05:54:49;;;;;;;20.67;5.28;;;;;;;13.67;79.87;102132.53;5069091;28;20021;-77
2022/06/12 05:57:15;;;;;;;19.50;6.22;;;;;;;13.73;79.23;102131.28;5071617;28;20024;-78
2022/06/12 05:59:40;;;;;;;22.80;5.50;;;;;;;13.79;80.10;102129.06;5072352;28;20059;-78
2022/06/12 06:02:06;;;;;;;27.27;6.68;;;;;;;13.88;79.86;102124.88;5070594;28;20330;-78
2022/06/12 06:04:32;;;;;;;20.73;6.28;;;;;;;13.95;79.86;102133.41;5071097;28;20027;-77
2022/06/12 06:06:58;;;;;;;23.50;5.82;;;;;;;14.01;80.09;102126.72;5073951;28;20459;-77
2022/06/12 06:09:25;;;;;;;21.00;6.13;;;;;;;14.08;80.24;102130.75;5063665;28;20043;-77
2022/06/12 06:11:50;;;;;;;19.33;6.30;;;;;;;14.15;80.32;102132.06;5071380;28;20028;-77
2022/06/12 06:14:16;;;;;;;21.13;5.60;;;;;;;14.21;81.08;102139.75;5073047;28;20131;-77
2022/06/12 06:16:42;;;;;;;24.35;6.03;;;;;;;14.29;81.09;102140.13;5073921;28;20078;-77
2022/06/12 06:19:08;;;;;;;24.35;6.22;;;;;;;14.39;81.16;102139.47;5072991;28;20050;-77
2022/06/12 06:21:34;;;;;;;21.88;5.70;;;;;;;14.46;81.23;102140.78;5071803;28;20058;-78
2022/06/12 06:23:59;;;;;;;21.50;6.10;;;;;;;14.56;81.72;102141.88;5065840;28;20112;-78
2022/06/12 06:26:24;;;;;;;26.00;5.85;;;;;;;14.66;82.17;102140.28;5070189;28;20020;-78
2022/06/12 06:28:51;;;;;;;28.42;7.97;;;;;;;14.75;81.87;102135.22;5072099;28;20056;-78
2022/06/12 06:31:17;;;;;;;23.65;6.45;;;;;;;14.87;82.41;102142.47;5070118;28;20036;-78
2022/06/12 06:33:42;;;;;;;24.02;6.18;;;;;;;14.96;82.01;102149.06;5070112;28;20032;-78
2022/06/12 06:36:10;;;;;;;21.55;5.97;;;;;;;15.04;81.75;102143.97;5071037;28;20112;-78
2022/06/12 06:38:35;;;;;;;23.30;6.78;;;;;;;15.09;81.76;102140.94;5071762;28;20039;-78
2022/06/12 06:41:01;;;;;;;20.63;6.30;;;;;;;15.14;81.46;102145.03;5068589;28;20024;-78
2022/06/12 06:43:26;;;;;;;22.42;6.55;;;;;;;15.20;82.16;102144.59;5071831;28;20089;-79
2022/06/12 06:48:35;;;;;;;27.90;7.18;;;;;;;15.30;80.89;102149.34;5068970;28;20465;-79
2022/06/12 06:51:01;;;;;;;24.45;6.70;;;;;;;15.33;80.42;102155.41;5070471;28;20107;-79
2022/06/12 06:53:26;;;;;;;24.10;6.97;;;;;;;15.40;80.99;102157.66;5067430;28;20118;-79
2022/06/12 06:55:52;;;;;;;22.73;6.57;;;;;;;15.47;81.76;102156.25;5071075;28;20135;-78
2022/06/12 06:58:21;;;;;;;29.63;7.90;;;;;;;15.54;80.58;102161.09;5069096;28;20412;-78
2022/06/12 07:00:48;;;;;;;28.42;8.32;;;;;;;15.59;80.67;102163.44;5069872;28;20058;-78
2022/06/12 07:03:14;;;;;;;25.20;6.78;;;;;;;15.68;80.30;102159.19;5069114;28;20028;-79
2022/06/12 07:05:41;;;;;;;22.80;6.63;;;;;;;15.73;79.08;102159.72;5070180;28;20075;-79
2022/06/12 07:08:06;;;;;;;22.80;7.13;;;;;;;15.77;78.85;102157.66;5066976;28;20032;-78
2022/06/12 07:10:34;;;;;;;25.48;7.53;;;;;;;15.82;78.95;102155.50;5062986;28;20029;-78
2022/06/12 07:13:01;;;;;;;29.27;7.00;;;;;;;15.85;79.63;102155.28;5068853;28;20029;-78
2022/06/12 07:15:29;;;;;;;24.08;7.22;;;;;;;15.91;80.55;102152.09;5068801;28;20602;-78
2022/06/12 07:17:54;;;;;;;24.58;7.20;;;;;;;15.96;79.16;102149.91;5071971;28;20109;-78
2022/06/12 07:20:24;;;;;;;25.88;7.22;;;;;;;15.99;78.13;102160.53;5072942;28;20172;-78
2022/06/12 07:22:50;;;;;;;25.38;6.85;;;;;;;16.03;78.32;102151.19;5069901;28;20024;-78
2022/06/12 07:25:16;;;;;;;24.85;6.70;;;;;;;16.00;77.12;102161.38;5070823;28;20046;-78
2022/06/12 07:27:42;;;;;;;26.38;8.02;;;;;;;15.99;77.27;102162.34;5070004;28;20017;-78
2022/06/12 07:30:10;;;;;;;25.85;7.05;;;;;;;16.02;77.85;102157.56;5072975;28;20026;-78
2022/06/12 07:32:35;;;;;;;20.40;6.57;;;;;;;16.08;77.59;102161.69;5069296;28;20496;-78
2022/06/12 07:35:01;;;;;;;22.88;6.95;;;;;;;16.08;76.46;102159.81;5069931;28;20020;-78
2022/06/12 07:37:27;;;;;;;22.63;7.63;;;;;;;16.10;77.56;102161.56;5070625;28;20039;-78
2022/06/12 07:39:52;;;;;;;26.52;7.05;;;;;;;16.16;76.92;102161.09;5069851;28;20024;-78
2022/06/12 07:42:17;;;;;;;20.67;6.35;;;;;;;16.22;77.10;102153.34;5066983;28;20060;-78
2022/06/12 07:44:43;;;;;;;23.95;6.93;;;;;;;16.31;77.45;102167.19;5068398;28;20039;-78
2022/06/12 07:47:09;;;;;;;22.73;7.50;;;;;;;16.35;76.87;102158.69;5071354;28;20025;-78
2022/06/12 07:49:34;;;;;;;22.83;7.32;;;;;;;16.44;76.63;102157.09;5069076;28;20031;-78
2022/06/12 07:52:03;;;;;;;23.40;6.65;;;;;;;16.49;73.71;102156.78;5071836;28;20088;-79
2022/06/12 07:54:30;;;;;;;18.60;5.00;;;;;;;16.54;75.01;102157.25;5069359;28;20059;-79
2022/06/12 07:56:56;;;;;;;25.17;6.60;;;;;;;16.63;75.39;102159.25;5068136;28;20031;-79
2022/06/12 07:59:21;;;;;;;25.27;8.07;;;;;;;16.74;75.49;102161.13;5070925;28;20032;-78
2022/06/12 08:01:47;;;;;;;23.40;6.60;;;;;;;16.82;75.26;102158.66;5052934;28;20021;-78
2022/06/12 08:04:12;;;;;;;19.13;6.15;;;;;;;16.88;74.50;102160.06;5071450;28;20417;-78
2022/06/12 08:06:37;;;;;;;21.63;7.30;;;;;;;16.90;72.60;102164.41;5068797;28;20029;-78
2022/06/12 08:09:05;;;;;;;19.65;6.03;;;;;;;16.97;73.42;102167.50;5070990;28;20034;-78
2022/06/12 08:11:32;;;;;;;20.05;6.00;;;;;;;17.01;70.45;102168.97;5066076;28;20098;-78
2022/06/12 08:13:58;;;;;;;18.05;5.93;;;;;;;17.04;70.99;102166.03;5069773;28;20108;-78
2022/06/12 08:16:24;;;;;;;22.63;6.20;;;;;;;17.06;71.34;102165.91;5068994;28;20112;-77
2022/06/12 08:18:49;;;;;;;19.58;6.10;;;;;;;17.12;73.42;102158.09;5066980;28;20040;-79
2022/06/12 08:21:16;;;;;;;23.15;7.13;;;;;;;17.08;70.60;102164.78;5072114;28;20075;-79
2022/06/12 08:23:58;;;;;;;16.75;5.60;;;;;;;17.11;71.48;102164.53;5065747;28;20039;-79
2022/06/12 08:26:28;;;;;;;18.30;4.82;;;;;;;17.16;71.36;102160.56;5051352;28;20484;-78
2022/06/12 08:28:55;;;;;;;;;;;;;;;17.20;72.52;102159.34;5067568;28;20029;-78
2022/06/12 08:31:25;;;;;;;22.10;6.07;;;;;;;17.21;72.52;102163.81;5064457;28;19938;-78
2022/06/12 08:33:55;;;;;;;24.17;6.60;;;;;;;17.24;71.62;102164.41;5061498;28;20024;-78
2022/06/12 08:36:21;;;;;;;19.55;6.18;;;;;;;17.27;70.77;102174.16;5070611;28;20036;-79
2022/06/12 08:38:47;;;;;;;23.08;5.82;;;;;;;17.30;72.26;102173.91;5070442;28;20377;-79
2022/06/12 08:41:35;;;;;;;23.27;6.78;;;;;;;17.28;70.10;102165.03;5069310;28;20025;-79
2022/06/12 08:44:25;;;;;;;20.75;6.32;;;;;;;17.33;71.13;102162.78;5066272;28;20036;-78
2022/06/12 08:46:59;;;;;;;23.88;6.63;;;;;;;17.33;69.94;102156.50;5054665;28;20024;-78
2022/06/12 08:49:31;;;;;;;18.98;6.35;;;;;;;17.40;70.43;102153.16;5068870;28;20032;-79
2022/06/12 08:51:59;;;;;;;19.55;6.35;;;;;;;17.42;69.15;102151.19;5067921;28;20048;-79
2022/06/12 08:54:33;;;;;;;16.60;5.35;;;;;;;17.46;69.46;102151.78;5066403;28;20028;-78
2022/06/12 08:57:06;;;;;;;16.73;4.78;;;;;;;17.50;69.11;102155.09;5067788;28;20062;-78
2022/06/12 08:59:38;;;;;;;22.30;6.30;;;;;;;17.53;68.87;102152.16;5066636;28;20415;-78
2022/06/12 09:02:05;;;;;;;22.30;6.20;;;;;;;17.65;69.41;102145.69;5068311;28;20426;-79
2022/06/12 09:04:31;;;;;;;17.83;5.28;;;;;;;17.67;67.53;102142.84;5064008;28;20032;-78
2022/06/12 09:07:09;;;;;;;18.17;5.75;;;;;;;17.73;68.51;102136.91;5071354;28;20021;-79
2022/06/12 09:09:51;;;;;;;23.07;5.87;;;;;;;17.75;65.32;102141.22;5066800;28;20128;-77
2022/06/12 09:12:24;;;;;;;18.90;5.18;;;;;;;17.80;65.33;102139.00;5070086;28;20040;-77
2022/06/12 09:15:19;;;;;;;20.98;6.07;;;;;;;17.87;66.91;102130.31;5068675;28;20055;-78
2022/06/12 09:17:48;;;;;;;19.63;5.85;;;;;;;17.92;64.55;102134.41;5069792;28;20441;-78
2022/06/12 09:20:31;;;;;;;24.25;6.65;;;;;;;18.02;66.30;102131.75;5066994;28;20025;-78
2022/06/12 09:23:24;;;;;;;18.73;5.50;;;;;;;18.10;66.07;102131.97;5066713;28;20040;-78
2022/06/12 09:26:11;;;;;;;22.05;7.28;;;;;;;18.14;64.49;102132.56;5050293;28;20279;-78
2022/06/12 09:28:36;;;;;;;24.25;7.10;;;;;;;18.25;65.59;102115.34;5065852;28;20044;-81
2022/06/12 09:31:14;;;;;;;19.58;5.72;;;;;;;18.38;65.17;102134.22;5064931;28;20431;-80
2022/06/12 09:33:51;;;;;;;19.42;5.68;;;;;;;18.46;63.49;102123.50;5061678;28;20108;-80
2022/06/12 09:38:18;;;;;;;19.38;6.63;;;;;;;18.57;65.57;102130.75;5061608;28;20028;-80
2022/06/12 09:40:16;;;;;;;19.65;6.35;;;;;;;18.55;64.07;102120.00;5027472;28;20044;-81
2022/06/12 09:43:14;;;;;;;22.25;6.60;;;;;;;18.69;66.68;102132.38;5009563;28;20022;-80
2022/06/12 09:45:58;;;;;;;16.40;5.40;;;;;;;18.77;62.08;102123.53;5011395;28;20088;-81
2022/06/12 09:48:53;;;;;;;18.98;5.50;;;;;;;18.84;62.96;102122.88;5024939;28;20082;-79
2022/06/12 09:51:37;;;;;;;23.00;5.68;;;;;;;18.88;60.80;102128.94;5023497;28;20130;-79
2022/06/12 09:54:20;;;;;;;15.50;4.88;;;;;;;18.90;60.43;102131.53;5007610;28;20464;-79
2022/06/12 09:57:01;;;;;;;20.70;5.25;;;;;;;18.91;60.34;102127.81;5022064;28;20489;-79
2022/06/12 09:59:36;;;;;;;17.63;5.35;;;;;;;19.00;61.91;102122.38;5026212;28;20025;-79
2022/06/12 10:02:16;;;;;;;18.38;5.32;;;;;;;19.02;59.63;102135.91;5008859;28;20052;-79
2022/06/12 10:04:49;;;;;;;;;;;;;;;19.04;60.81;102133.88;5020521;28;20041;-78
2022/06/12 10:07:21;;;;;;;15.50;4.10;;;;;;;19.04;58.52;102118.41;5011444;28;19913;-78
2022/06/12 10:09:56;;;;;;;19.60;5.18;;;;;;;19.14;59.26;102113.00;5041722;28;20041;-79
2022/06/12 10:12:32;;;;;;;21.10;5.60;;;;;;;19.18;60.89;102124.47;5069138;28;20035;-78
2022/06/12 10:15:13;;;;;;;18.17;6.13;;;;;;;19.12;59.55;102119.56;5061388;28;20028;-78
2022/06/12 10:17:46;;;;;;;17.50;5.45;;;;;;;19.12;59.85;102119.56;5066469;28;20125;-78
2022/06/12 10:20:16;;;;;;;18.92;5.30;;;;;;;19.09;59.01;102111.69;5059327;28;20108;-78
2022/06/12 10:22:49;;;;;;;20.45;4.80;;;;;;;19.11;62.42;102110.53;5067487;28;20045;-78
2022/06/12 10:25:22;;;;;;;21.70;6.07;;;;;;;19.09;60.41;102109.81;5061299;28;20028;-78
2022/06/12 10:27:53;;;;;;;23.23;5.85;;;;;;;19.01;58.89;102107.78;5065838;28;20021;-78
2022/06/12 10:30:39;;;;;;;14.38;4.70;;;;;;;19.09;60.30;102111.69;5069216;28;20043;-78
2022/06/12 10:33:17;;;;;;;17.67;4.72;;;;;;;19.10;59.00;102108.81;5063817;28;20062;-78
2022/06/12 10:35:55;;;;;;;23.45;5.10;;;;;;;19.13;59.06;102105.81;5072199;28;20062;-77
2022/06/12 10:38:22;;;;;;;19.45;5.00;;;;;;;19.10;58.76;102103.34;5069364;28;20536;-77
2022/06/12 10:40:54;;;;;;;18.63;4.28;;;;;;;19.14;59.21;102101.25;5064347;28;20029;-78
2022/06/12 10:43:31;;;;;;;18.45;5.03;;;;;;;19.11;59.35;102096.91;5067660;28;20392;-78
2022/06/12 10:45:59;;;;;;;14.20;4.10;;;;;;;19.11;58.64;102105.09;5071123;28;20025;-78
2022/06/12 10:48:32;;;;;;;14.98;3.88;;;;;;;19.12;57.03;102105.94;5070219;28;20108;-78
2022/06/12 10:51:02;;;;;;;15.68;3.88;;;;;;;19.12;58.32;102104.09;5071515;28;20021;-78
2022/06/12 10:53:29;;;;;;;15.70;4.00;;;;;;;19.21;58.59;102110.59;5066130;28;20078;-79
2022/06/12 10:56:07;;;;;;;13.65;3.70;;;;;;;19.29;58.29;102102.56;5067988;28;20454;-78
2022/06/12 10:59:00;;;;;;;19.65;3.95;;;;;;;19.44;59.83;102097.56;5067443;28;20052;-78
2022/06/12 11:01:44;;;;;;;12.50;3.50;;;;;;;19.63;58.13;102091.28;5069649;28;20078;-78
2022/06/12 11:04:23;;;;;;;17.58;4.47;;;;;;;19.73;56.70;102088.56;5069482;28;20024;-78
2022/06/12 11:07:14;;;;;;;;;;;;;;;19.78;59.22;102094.50;5070620;28;20052;-78
2022/06/12 11:09:58;;;;;;;13.18;3.85;;;;;;;19.93;58.84;102094.06;5068527;28;19912;-79
2022/06/12 11:12:33;;;;;;;11.85;3.92;;;;;;;19.96;55.53;102083.75;5070809;28;20118;-79
2022/06/12 11:15:10;;;;;;;13.18;3.72;;;;;;;20.10;57.98;102090.59;5063988;28;20024;-78
2022/06/12 11:17:57;;;;;;;15.20;4.07;;;;;;;20.21;55.83;102085.00;5063465;28;20036;-78
2022/06/12 11:20:27;;;;;;;18.98;4.50;;;;;;;20.25;57.56;102086.44;5066793;28;20456;-77
2022/06/12 11:23:01;;;;;;;15.77;4.50;;;;;;;20.29;58.29;102086.13;5066259;28;20144;-77
2022/06/12 11:26:03;;;;;;;14.52;3.83;;;;;;;20.35;57.86;102088.28;5065490;28;20036;-77
2022/06/12 11:28:47;;;;;;;15.63;4.40;;;;;;;20.29;54.12;102083.41;5069032;28;20112;-78
2022/06/12 11:31:40;;;;;;;14.15;3.60;;;;;;;20.21;54.82;102084.16;5059709;28;20510;-78
2022/06/12 11:34:34;;;;;;;12.93;3.78;;;;;;;20.13;55.09;102087.59;5060830;28;20119;-78
2022/06/12 11:37:32;;;;;;;14.57;4.00;;;;;;;20.11;57.41;102083.31;5066323;28;20027;-78
2022/06/12 11:40:34;;;;;;;18.42;4.07;;;;;;;20.17;56.21;102083.56;5066871;28;20027;-81
2022/06/12 11:43:23;;;;;;;19.60;4.82;;;;;;;20.26;53.84;102079.09;5062518;28;20034;-80
2022/06/12 11:45:51;;;;;;;13.30;3.88;;;;;;;20.28;52.55;102073.50;5069052;28;20099;-79
2022/06/12 11:48:16;;;;;;;16.02;3.70;;;;;;;20.38;55.36;102068.88;5069393;28;20127;-81
2022/06/12 11:51:10;;;;;;;12.68;3.42;;;;;;;20.36;53.88;102070.91;5062373;28;20107;-80
2022/06/12 11:53:47;;;;;;;13.68;3.60;;;;;;;20.31;53.20;102056.81;5066403;28;20024;-79
2022/06/12 11:56:45;;;;;;;21.50;3.80;;;;;;;20.29;52.94;102061.56;5066627;28;20029;-80
2022/06/12 11:59:53;;;;;;;16.17;3.78;;;;;;;20.30;54.57;102068.75;5058730;28;20027;-81